Time;durP1;ratioP1;P1;durP2;ratioP2;P2;SDS_P1;SDS_P2;PMS_P1;PMS_P2;Temp;Humidity;BMP_temperature;BMP_pressure;BME280_temperature;BME280_humidity;BME280_pressure;Samples;Min_cycle;Max_cycle;Signal;HPM_P1;HPM_P2
2022/12/15 00:39:11;;;;;;;15.05;9.07;;;;;;;;;;7373269;19;20007;-79
2022/12/15 00:41:42;;;;;;;19.95;9.65;;;;;;;;;;7372673;19;20021;-79
2022/12/15 00:44:12;;;;;;;19.80;10.25;;;;;;;;;;7373887;19;20010;-79
2022/12/15 00:46:55;;;;;;;17.05;10.60;;;;;;;;;;7377368;19;20021;-79
2022/12/15 01:22:15;;;;;;;16.33;9.35;;;;;;;;;;7377973;19;19927;-82
2022/12/15 01:24:44;;;;;;;28.20;13.15;;;;;;;;;;7382017;19;20044;-82
2022/12/15 01:27:15;;;;;;;20.73;10.38;;;;;;;;;;7384532;19;20015;-81
2022/12/15 01:29:45;;;;;;;21.80;11.27;;;;;;;;;;7380909;19;20029;-82
2022/12/15 01:32:15;;;;;;;24.63;12.30;;;;;;;;;;7377203;19;20583;-82
2022/12/15 01:34:45;;;;;;;23.70;10.95;;;;;;;;;;7378468;19;20364;-82
2022/12/15 01:37:17;;;;;;;26.00;12.40;;;;;;;;;;7377083;19;20032;-82
2022/12/15 01:42:30;;;;;;;25.38;12.50;;;;;;;;;;7269150;19;2004102;-82
2022/12/15 01:45:29;;;;;;;25.42;11.82;;;;;;;;;;7373723;19;20021;-82
2022/12/15 01:48:04;;;;;;;23.88;11.82;;;;;;;;;;7368960;19;20014;-78
2022/12/15 01:50:37;;;;;;;23.35;11.65;;;;;;;;;;7374326;19;20017;-78
2022/12/15 01:53:10;;;;;;;22.70;12.30;;;;;;;;;;7366222;19;20013;-79
2022/12/15 01:55:43;;;;;;;22.00;11.55;;;;;;;;;;7372185;19;20081;-82
2022/12/15 01:58:18;;;;;;;15.00;9.82;;;;;;;;;;7366950;19;20021;-80
2022/12/15 02:00:51;;;;;;;24.70;11.35;;;;;;;;;;7369251;19;20014;-77
2022/12/15 02:03:21;;;;;;;19.35;11.23;;;;;;;;;;7345562;19;20011;-80
2022/12/15 02:05:51;;;;;;;22.52;13.10;;;;;;;;;;7364570;19;20488;-81
2022/12/15 02:08:27;;;;;;;21.25;11.82;;;;;;;;;;7369843;19;20006;-78
2022/12/15 02:11:20;;;;;;;17.83;9.55;;;;;;;;;;7368617;19;20046;-78
2022/12/15 02:14:00;;;;;;;27.50;13.35;;;;;;;;;;7365502;19;20007;-80
2022/12/15 02:16:48;;;;;;;20.38;10.30;;;;;;;;;;7374241;19;20347;-78
2022/12/15 02:19:46;;;;;;;17.55;9.82;;;;;;;;;;7374412;19;20018;-81
2022/12/15 02:22:27;;;;;;;22.95;10.85;;;;;;;;;;7367701;19;20007;-83
2022/12/15 02:25:22;;;;;;;23.65;12.48;;;;;;;;;;7347662;19;20004;-78
2022/12/15 02:27:58;;;;;;;22.98;11.98;;;;;;;;;;7374301;19;20010;-80
2022/12/15 02:30:43;;;;;;;26.85;12.25;;;;;;;;;;7359758;19;20010;-80
2022/12/15 02:33:19;;;;;;;17.65;10.18;;;;;;;;;;7380628;19;20011;-77
2022/12/15 02:35:55;;;;;;;25.20;13.35;;;;;;;;;;7376033;19;20007;-77
2022/12/15 02:38:34;;;;;;;21.75;10.57;;;;;;;;;;7377184;19;20086;-78
2022/12/15 02:41:06;;;;;;;25.25;12.82;;;;;;;;;;7372087;19;20299;-78
2022/12/15 02:43:41;;;;;;;27.02;13.02;;;;;;;;;;7369989;19;20006;-78
2022/12/15 02:46:27;;;;;;;24.40;13.00;;;;;;;;;;7365920;19;20651;-79
2022/12/15 02:49:02;;;;;;;20.60;11.73;;;;;;;;;;7374778;19;20010;-78
2022/12/15 02:51:45;;;;;;;22.33;13.38;;;;;;;;;;7374988;19;20021;-79
2022/12/15 02:54:38;;;;;;;22.00;13.43;;;;;;;;;;7370534;19;20035;-81
2022/12/15 02:57:13;;;;;;;25.55;13.05;;;;;;;;;;7374727;19;20745;-81
2022/12/15 02:59:46;;;;;;;22.38;14.05;;;;;;;;;;7378423;19;20021;-82
2022/12/15 03:02:19;;;;;;;25.55;12.77;;;;;;;;;;7372473;19;20489;-81
2022/12/15 03:04:49;;;;;;;22.77;12.30;;;;;;;;;;7379184;19;20010;-82
2022/12/15 03:07:19;;;;;;;23.48;12.48;;;;;;;;;;7377118;19;20011;-81
2022/12/15 03:09:49;;;;;;;22.98;12.60;;;;;;;;;;7373129;19;20378;-81
2022/12/15 03:12:18;;;;;;;24.23;13.48;;;;;;;;;;7380778;19;20007;-82
2022/12/15 03:14:48;;;;;;;24.23;13.15;;;;;;;;;;7375788;19;20373;-82
2022/12/15 03:17:22;;;;;;;22.95;11.68;;;;;;;;;;7373637;19;20044;-78
2022/12/15 03:19:52;;;;;;;25.70;15.07;;;;;;;;;;7373519;19;20035;-80
2022/12/15 03:22:22;;;;;;;21.60;10.52;;;;;;;;;;7350730;19;20038;-78
2022/12/15 03:24:52;;;;;;;22.90;12.98;;;;;;;;;;7349110;19;20006;-78
2022/12/15 03:27:30;;;;;;;27.38;14.15;;;;;;;;;;7375663;19;20039;-78
2022/12/15 03:30:03;;;;;;;25.63;12.40;;;;;;;;;;7368110;19;20082;-78
2022/12/15 03:32:36;;;;;;;23.08;11.93;;;;;;;;;;7378037;19;20078;-78
2022/12/15 03:35:09;;;;;;;27.00;14.93;;;;;;;;;;7348029;19;20022;-78
2022/12/15 03:37:39;;;;;;;19.90;12.82;;;;;;;;;;7349010;19;20010;-78
2022/12/15 03:40:13;;;;;;;26.67;14.68;;;;;;;;;;7346673;19;20022;-78
2022/12/15 03:42:52;;;;;;;24.00;12.70;;;;;;;;;;7371651;19;20467;-78
2022/12/15 03:45:27;;;;;;;21.20;11.75;;;;;;;;;;7374661;19;20021;-77
2022/12/15 03:48:02;;;;;;;26.05;13.65;;;;;;;;;;7365820;19;20029;-78
2022/12/15 03:50:32;;;;;;;21.35;13.73;;;;;;;;;;7351264;19;20032;-78
2022/12/15 03:53:06;;;;;;;21.05;14.02;;;;;;;;;;7370412;19;20079;-78
2022/12/15 03:55:36;;;;;;;18.88;10.13;;;;;;;;;;7331663;19;20043;-82
2022/12/15 03:58:08;;;;;;;23.50;14.65;;;;;;;;;;7373000;19;20010;-81
2022/12/15 04:00:38;;;;;;;27.35;13.82;;;;;;;;;;7376517;19;20018;-82
2022/12/15 04:03:11;;;;;;;20.33;11.93;;;;;;;;;;7373823;19;20012;-82
2022/12/15 04:05:42;;;;;;;24.35;13.23;;;;;;;;;;7376202;19;20015;-80
2022/12/15 04:08:13;;;;;;;25.77;12.13;;;;;;;;;;7363675;19;20028;-77
2022/12/15 04:10:44;;;;;;;25.67;12.82;;;;;;;;;;7370873;19;20020;-79
2022/12/15 04:13:13;;;;;;;22.45;11.80;;;;;;;;;;7376320;19;20070;-80
2022/12/15 04:15:43;;;;;;;23.38;13.63;;;;;;;;;;7373131;19;20010;-81
2022/12/15 04:18:16;;;;;;;22.35;11.15;;;;;;;;;;7371733;19;20540;-82
2022/12/15 04:20:43;;;;;;;20.58;11.23;;;;;;;;;;7374119;19;20011;-81
2022/12/15 04:23:13;;;;;;;24.25;12.85;;;;;;;;;;7372202;19;20070;-80
2022/12/15 05:34:00;;;;;;;24.27;13.23;;;;;;;;;;7327027;19;20011;-76
2022/12/15 05:39:48;;;;;;;15.65;9.98;;;;;;;;;;7347561;19;20050;-77
2022/12/15 05:42:26;;;;;;;22.15;11.60;;;;;;;;;;7295038;19;20051;-77
2022/12/15 05:44:59;;;;;;;24.30;12.43;;;;;;;;;;7337445;19;20015;-77
2022/12/15 05:47:35;;;;;;;23.35;13.30;;;;;;;;;;7297715;19;20018;-77
2022/12/15 05:50:08;;;;;;;20.77;11.30;;;;;;;;;;7332468;19;20053;-82
2022/12/15 05:52:55;;;;;;;21.83;11.02;;;;;;;;;;7331692;19;20026;-77
2022/12/15 05:55:44;;;;;;;24.63;11.02;;;;;;;;;;7325697;19;20487;-77
2022/12/15 05:58:29;;;;;;;22.25;11.15;;;;;;;;;;7287512;19;20006;-77
2022/12/15 06:01:13;;;;;;;21.38;12.55;;;;;;;;;;7327941;19;20388;-77
2022/12/15 06:03:47;;;;;;;19.83;12.55;;;;;;;;;;7384770;19;20401;-81
2022/12/15 06:06:17;;;;;;;21.25;12.50;;;;;;;;;;7381938;19;20011;-80
2022/12/15 06:08:47;;;;;;;16.08;10.32;;;;;;;;;;7384705;19;20010;-81
2022/12/15 06:11:22;;;;;;;29.00;14.82;;;;;;;;;;7384585;19;20035;-79
2022/12/15 06:14:15;;;;;;;;;;;;;;;;;;7337969;19;20018;-79
2022/12/15 06:16:58;;;;;;;22.38;12.15;;;;;;;;;;7147226;19;2020632;-75
2022/12/15 06:19:42;;;;;;;27.45;15.15;;;;;;;;;;7357801;19;20013;-78
2022/12/15 06:22:18;;;;;;;25.25;12.77;;;;;;;;;;7291710;19;20093;-80
2022/12/15 06:24:47;;;;;;;26.30;13.88;;;;;;;;;;7376945;19;20116;-81
2022/12/15 06:27:20;;;;;;;23.55;13.52;;;;;;;;;;7377834;19;20369;-80
2022/12/15 06:29:50;;;;;;;25.85;13.60;;;;;;;;;;7373618;19;20044;-80
2022/12/15 06:32:20;;;;;;;21.70;13.18;;;;;;;;;;7381213;19;20035;-81
2022/12/15 06:34:50;;;;;;;25.48;13.95;;;;;;;;;;7378512;19;20145;-81
2022/12/15 06:37:20;;;;;;;27.35;15.65;;;;;;;;;;7379611;19;20014;-80
2022/12/15 06:39:49;;;;;;;23.25;11.75;;;;;;;;;;7373907;19;20022;-80
2022/12/15 06:42:22;;;;;;;24.45;14.02;;;;;;;;;;7376626;19;20007;-81
2022/12/15 06:44:52;;;;;;;23.83;12.75;;;;;;;;;;7376862;19;20010;-81
2022/12/15 06:47:22;;;;;;;24.20;14.13;;;;;;;;;;7378159;19;20007;-80
2022/12/15 06:49:52;;;;;;;32.22;15.45;;;;;;;;;;7377719;19;20399;-80
2022/12/15 06:52:22;;;;;;;25.40;13.15;;;;;;;;;;7376015;19;20090;-81
2022/12/15 06:54:52;;;;;;;35.05;15.77;;;;;;;;;;7374084;19;20007;-80
2022/12/15 06:57:24;;;;;;;21.80;14.73;;;;;;;;;;7378676;19;20030;-81
2022/12/15 06:59:54;;;;;;;26.75;13.63;;;;;;;;;;7374430;19;20028;-80
2022/12/15 07:02:24;;;;;;;27.60;14.85;;;;;;;;;;7377125;19;20021;-80
2022/12/15 07:04:57;;;;;;;27.92;16.02;;;;;;;;;;7375438;19;20011;-81
2022/12/15 07:07:28;;;;;;;25.75;15.50;;;;;;;;;;7375944;19;20966;-81
2022/12/15 07:09:57;;;;;;;29.55;15.50;;;;;;;;;;7373580;19;20026;-81
2022/12/15 07:12:31;;;;;;;33.70;15.63;;;;;;;;;;7373765;19;20018;-80
2022/12/15 07:15:01;;;;;;;23.67;14.00;;;;;;;;;;7374383;19;20573;-81
2022/12/15 07:17:41;;;;;;;24.10;14.75;;;;;;;;;;7377796;19;20463;-77
2022/12/15 07:20:22;;;;;;;24.88;14.50;;;;;;;;;;7322543;19;20022;-77
2022/12/15 07:23:06;;;;;;;21.73;12.73;;;;;;;;;;7322684;19;20006;-76
2022/12/15 07:25:46;;;;;;;32.45;16.13;;;;;;;;;;7352615;19;20013;-76
2022/12/15 07:28:21;;;;;;;31.50;17.10;;;;;;;;;;7346666;19;20090;-76
2022/12/15 07:30:56;;;;;;;27.88;15.73;;;;;;;;;;7378893;19;20048;-80
2022/12/15 07:33:25;;;;;;;28.08;15.30;;;;;;;;;;7379597;19;20011;-80
2022/12/15 07:35:55;;;;;;;29.83;14.20;;;;;;;;;;7371882;19;20002;-80
2022/12/15 07:38:28;;;;;;;27.20;15.85;;;;;;;;;;7343360;19;20507;-76
2022/12/15 07:41:04;;;;;;;31.55;16.08;;;;;;;;;;7288133;19;20023;-77
2022/12/15 07:43:41;;;;;;;28.15;17.88;;;;;;;;;;7348485;19;20057;-77
2022/12/15 07:46:15;;;;;;;30.98;15.73;;;;;;;;;;7307848;19;20026;-77
2022/12/15 07:48:47;;;;;;;31.23;15.63;;;;;;;;;;7371902;19;20003;-81
2022/12/15 07:51:21;;;;;;;22.00;13.13;;;;;;;;;;7373094;19;20043;-81
2022/12/15 07:53:51;;;;;;;25.70;14.70;;;;;;;;;;7368385;19;20107;-80
2022/12/15 07:56:22;;;;;;;27.95;14.80;;;;;;;;;;7376898;19;20352;-81
2022/12/15 07:58:55;;;;;;;26.92;14.80;;;;;;;;;;7375870;19;20013;-80
2022/12/15 08:01:24;;;;;;;33.88;16.42;;;;;;;;;;7373978;19;20313;-82
2022/12/15 08:03:55;;;;;;;29.70;16.40;;;;;;;;;;7373862;19;20436;-81
2022/12/15 08:06:24;;;;;;;26.20;13.90;;;;;;;;;;7372658;19;20133;-80
2022/12/15 08:08:54;;;;;;;28.35;16.48;;;;;;;;;;7371433;19;20074;-80
2022/12/15 08:11:25;;;;;;;31.85;18.63;;;;;;;;;;7374537;19;20007;-80
2022/12/15 08:13:57;;;;;;;31.13;14.70;;;;;;;;;;7371535;19;20010;-80
2022/12/15 08:16:59;;;;;;;36.88;17.08;;;;;;;;;;7370766;19;20018;-78
2022/12/15 08:19:47;;;;;;;28.92;15.43;;;;;;;;;;7305497;19;20017;-77
2022/12/15 08:22:26;;;;;;;32.53;16.42;;;;;;;;;;7300414;19;20589;-80
2022/12/15 08:24:56;;;;;;;29.48;17.50;;;;;;;;;;7373421;19;20017;-80
2022/12/15 08:27:26;;;;;;;35.70;18.67;;;;;;;;;;7376842;19;20003;-81
2022/12/15 08:29:59;;;;;;;31.75;17.30;;;;;;;;;;7374851;19;20015;-80
2022/12/15 08:32:29;;;;;;;37.50;16.85;;;;;;;;;;7377896;19;20018;-80
2022/12/15 08:34:59;;;;;;;32.65;14.57;;;;;;;;;;7377096;19;20010;-81
2022/12/15 08:37:31;;;;;;;32.92;18.48;;;;;;;;;;7374939;19;20006;-80
2022/12/15 08:40:01;;;;;;;35.90;17.27;;;;;;;;;;7374817;19;20035;-79
2022/12/15 08:42:34;;;;;;;31.52;16.45;;;;;;;;;;7376082;19;20443;-79
2022/12/15 08:45:09;;;;;;;34.85;19.98;;;;;;;;;;7377965;19;20023;-80
2022/12/15 08:47:39;;;;;;;32.67;18.35;;;;;;;;;;7376990;19;20018;-80
2022/12/15 08:50:20;;;;;;;29.95;15.57;;;;;;;;;;7374476;19;20030;-77
2022/12/15 08:53:25;;;;;;;33.17;17.17;;;;;;;;;;7357697;19;20236;-77
2022/12/15 08:56:05;;;;;;;40.35;19.20;;;;;;;;;;7346855;19;20015;-78
2022/12/15 08:58:35;;;;;;;34.08;19.55;;;;;;;;;;7378028;19;20014;-80
2022/12/15 09:01:21;;;;;;;38.15;20.75;;;;;;;;;;7372676;19;20113;-77
2022/12/15 09:03:55;;;;;;;34.47;18.80;;;;;;;;;;7341693;19;20009;-78
2022/12/15 09:06:32;;;;;;;45.55;20.02;;;;;;;;;;7372574;19;20003;-77
2022/12/15 09:09:07;;;;;;;32.60;18.02;;;;;;;;;;7374985;19;20470;-78
2022/12/15 09:11:38;;;;;;;41.58;18.73;;;;;;;;;;7375350;19;20003;-78
2022/12/15 09:14:09;;;;;;;36.78;20.20;;;;;;;;;;7367055;19;20061;-78
2022/12/15 09:16:42;;;;;;;34.15;18.98;;;;;;;;;;7375483;19;20018;-82
2022/12/15 09:19:12;;;;;;;41.37;20.33;;;;;;;;;;7371078;19;20011;-82
2022/12/15 09:21:43;;;;;;;37.05;19.45;;;;;;;;;;7371874;19;20264;-82
2022/12/15 09:24:15;;;;;;;30.80;18.15;;;;;;;;;;7369565;19;20805;-82
2022/12/15 09:26:55;;;;;;;33.65;20.35;;;;;;;;;;7368361;19;20031;-81
2022/12/15 09:29:25;;;;;;;38.92;20.55;;;;;;;;;;7371747;19;20056;-81
2022/12/15 09:31:57;;;;;;;44.08;18.50;;;;;;;;;;7373449;19;20014;-83
2022/12/15 09:34:27;;;;;;;34.95;17.70;;;;;;;;;;7376691;19;20010;-81
2022/12/15 09:36:57;;;;;;;48.33;19.27;;;;;;;;;;7371363;19;20507;-82
2022/12/15 09:39:31;;;;;;;44.15;18.73;;;;;;;;;;7371818;19;20006;-83
2022/12/15 09:42:05;;;;;;;33.55;18.40;;;;;;;;;;7369046;19;20533;-77
2022/12/15 09:44:46;;;;;;;34.10;18.30;;;;;;;;;;7325022;19;20009;-78
2022/12/15 09:47:51;;;;;;;44.35;19.65;;;;;;;;;;7366882;19;20091;-76
2022/12/15 09:50:26;;;;;;;32.45;16.88;;;;;;;;;;7367119;19;20015;-81
2022/12/15 09:52:59;;;;;;;41.30;19.15;;;;;;;;;;7373328;19;20024;-81
2022/12/15 09:55:35;;;;;;;31.35;17.63;;;;;;;;;;7374754;19;20078;-81
2022/12/15 09:58:09;;;;;;;37.17;17.42;;;;;;;;;;7376957;19;20018;-82
2022/12/15 10:00:43;;;;;;;37.05;18.02;;;;;;;;;;7379036;19;20486;-82
2022/12/15 10:03:39;;;;;;;42.10;19.73;;;;;;;;;;7373123;19;20071;-81
2022/12/15 10:06:11;;;;;;;35.10;18.48;;;;;;;;;;7374848;19;20022;-81
2022/12/15 10:08:50;;;;;;;43.90;20.08;;;;;;;;;;7375971;19;20566;-81
2022/12/15 10:11:37;;;;;;;35.95;17.13;;;;;;;;;;7373211;19;20565;-80
2022/12/15 10:14:15;;;;;;;44.55;19.00;;;;;;;;;;7350862;19;20482;-81
2022/12/15 10:16:54;;;;;;;37.40;18.58;;;;;;;;;;7373691;19;20642;-81
2022/12/15 10:19:31;;;;;;;36.03;18.98;;;;;;;;;;7366634;19;20016;-77
2022/12/15 10:22:02;;;;;;;39.65;19.15;;;;;;;;;;7366838;19;20111;-77
2022/12/15 10:24:33;;;;;;;34.63;18.65;;;;;;;;;;7370287;19;20753;-77
2022/12/15 10:27:36;;;;;;;39.28;19.70;;;;;;;;;;7359168;19;20176;-77
2022/12/15 10:30:09;;;;;;;30.10;17.25;;;;;;;;;;7366373;19;20021;-80
2022/12/15 10:32:46;;;;;;;40.67;17.83;;;;;;;;;;7375082;19;20011;-80
2022/12/15 10:35:27;;;;;;;40.75;19.35;;;;;;;;;;7367680;19;20017;-79
2022/12/15 10:37:59;;;;;;;32.58;17.20;;;;;;;;;;7365385;19;20110;-79
2022/12/15 10:40:46;;;;;;;40.08;18.48;;;;;;;;;;7371887;19;20091;-80
2022/12/15 10:43:27;;;;;;;32.17;18.35;;;;;;;;;;7365485;19;20066;-79
2022/12/15 10:46:03;;;;;;;31.52;19.85;;;;;;;;;;7371561;19;20007;-76
2022/12/15 10:48:33;;;;;;;37.47;19.80;;;;;;;;;;7375234;19;20022;-74
2022/12/15 10:51:29;;;;;;;30.13;16.65;;;;;;;;;;7374620;19;20035;-79
2022/12/15 10:54:08;;;;;;;35.00;17.88;;;;;;;;;;7376145;19;20074;-79
2022/12/15 10:56:49;;;;;;;40.63;20.00;;;;;;;;;;7382529;19;20018;-78
2022/12/15 10:59:27;;;;;;;33.78;18.15;;;;;;;;;;7377440;19;20512;-75
2022/12/15 11:01:57;;;;;;;36.50;19.42;;;;;;;;;;7375555;19;20021;-77
2022/12/15 11:04:28;;;;;;;35.88;18.40;;;;;;;;;;7374800;19;20010;-77
2022/12/15 11:07:03;;;;;;;35.53;17.65;;;;;;;;;;7375244;19;20043;-81
2022/12/15 11:09:36;;;;;;;30.98;17.15;;;;;;;;;;7369864;19;20106;-80
2022/12/15 11:15:00;;;;;;;34.58;17.50;;;;;;;;;;7373842;19;20011;-81
2022/12/15 11:17:40;;;;;;;37.90;21.55;;;;;;;;;;7371160;19;20014;-80
2022/12/15 11:20:21;;;;;;;31.77;17.48;;;;;;;;;;7378094;19;20040;-80
2022/12/15 11:22:56;;;;;;;32.55;18.85;;;;;;;;;;7375133;19;20373;-79
2022/12/15 11:25:30;;;;;;;24.42;14.90;;;;;;;;;;7376798;19;20014;-80
2022/12/15 11:28:02;;;;;;;25.77;15.70;;;;;;;;;;7376820;19;20010;-79
2022/12/15 11:30:37;;;;;;;24.88;14.77;;;;;;;;;;7354079;19;20020;-75
2022/12/15 11:33:10;;;;;;;25.15;13.07;;;;;;;;;;7329818;19;20005;-79
2022/12/15 11:36:06;;;;;;;;;;;;;;;;;;;;;
2022/12/15 11:39:09;;;;;;;28.70;12.77;;;;;;;;;;7368678;19;20014;-75
2022/12/15 11:49:54;;;;;;;18.60;8.43;;;;;;;;;;7190401;19;2004220;-81
2022/12/15 11:56:50;;;;;;;14.25;6.82;;;;;;;;;;7348065;19;20772;-75
2022/12/15 11:59:52;;;;;;;14.65;6.97;;;;;;;;;;7365723;19;20003;-80
2022/12/15 12:02:36;;;;;;;17.95;8.93;;;;;;;;;;7369678;19;20077;-80
2022/12/15 12:09:02;;;;;;;13.80;7.50;;;;;;;;;;7374151;19;20085;-77
2022/12/15 12:11:50;;;;;;;13.48;6.97;;;;;;;;;;7261437;19;2004525;-77
2022/12/15 12:14:31;;;;;;;19.40;6.88;;;;;;;;;;7375727;19;20420;-77
2022/12/15 12:17:08;;;;;;;14.77;7.20;;;;;;;;;;7375128;19;20067;-75
2022/12/15 12:19:44;;;;;;;14.13;6.18;;;;;;;;;;7371122;19;20716;-74
2022/12/15 12:22:23;;;;;;;12.90;5.68;;;;;;;;;;7373292;19;20126;-77
2022/12/15 12:24:56;;;;;;;13.23;6.53;;;;;;;;;;7374856;19;20010;-77
2022/12/15 12:27:31;;;;;;;13.27;6.00;;;;;;;;;;7371225;19;20369;-78
2022/12/15 12:30:04;;;;;;;14.55;6.30;;;;;;;;;;7374466;19;20013;-78
2022/12/15 12:32:46;;;;;;;12.75;6.82;;;;;;;;;;7373083;19;20029;-79
2022/12/15 12:35:25;;;;;;;12.60;6.30;;;;;;;;;;7371716;19;20050;-77
2022/12/15 12:38:02;;;;;;;12.90;6.00;;;;;;;;;;7369598;19;20010;-77
2022/12/15 12:40:48;;;;;;;10.25;5.95;;;;;;;;;;7377609;19;20021;-77
2022/12/15 12:43:29;;;;;;;9.65;4.65;;;;;;;;;;7375953;19;20113;-74
2022/12/15 12:46:02;;;;;;;8.82;4.07;;;;;;;;;;7378024;19;20416;-74
2022/12/15 12:48:39;;;;;;;9.15;4.20;;;;;;;;;;7375720;19;20017;-75
2022/12/15 12:51:18;;;;;;;9.30;3.67;;;;;;;;;;7366415;19;20011;-77
2022/12/15 12:53:51;;;;;;;6.50;3.65;;;;;;;;;;7371109;19;20014;-77
2022/12/15 12:56:35;;;;;;;5.65;3.03;;;;;;;;;;7375480;19;20010;-79
2022/12/15 12:59:38;;;;;;;7.25;2.80;;;;;;;;;;7367277;19;20011;-78
2022/12/15 13:02:44;;;;;;;5.68;2.95;;;;;;;;;;7354415;19;20109;-79
2022/12/15 13:05:30;;;;;;;3.60;2.30;;;;;;;;;;7375593;19;20018;-79
2022/12/15 13:08:18;;;;;;;7.97;3.03;;;;;;;;;;7378210;19;20487;-74
2022/12/15 13:10:50;;;;;;;6.75;2.80;;;;;;;;;;7369974;19;20015;-79
2022/12/15 13:13:43;;;;;;;5.18;2.33;;;;;;;;;;7369912;19;20014;-78
2022/12/15 13:16:22;;;;;;;5.35;2.50;;;;;;;;;;7375893;19;20313;-79
2022/12/15 13:19:00;;;;;;;6.25;2.92;;;;;;;;;;7377408;19;20043;-79
2022/12/15 13:21:56;;;;;;;4.80;2.10;;;;;;;;;;7375908;19;20782;-79
2022/12/15 13:24:33;;;;;;;5.18;2.15;;;;;;;;;;7378748;19;20010;-74
2022/12/15 13:27:20;;;;;;;5.15;2.58;;;;;;;;;;7368802;19;20070;-75
2022/12/15 13:30:01;;;;;;;4.78;2.45;;;;;;;;;;7372710;19;20015;-74
2022/12/15 13:32:35;;;;;;;3.95;2.20;;;;;;;;;;7371541;19;20040;-80
2022/12/15 13:35:23;;;;;;;5.72;2.38;;;;;;;;;;7367713;19;20018;-78
2022/12/15 13:37:57;;;;;;;5.72;2.65;;;;;;;;;;7367689;19;20017;-78
2022/12/15 13:40:34;;;;;;;7.90;2.35;;;;;;;;;;7376680;19;20435;-74
2022/12/15 13:43:11;;;;;;;5.88;2.05;;;;;;;;;;7366521;19;20006;-75
2022/12/15 13:45:53;;;;;;;3.72;1.75;;;;;;;;;;7374670;19;20020;-75
2022/12/15 13:48:36;;;;;;;5.63;2.08;;;;;;;;;;7340613;19;20011;-75
2022/12/15 13:51:17;;;;;;;7.50;2.70;;;;;;;;;;7346520;19;20052;-75
2022/12/15 13:53:55;;;;;;;4.45;2.40;;;;;;;;;;7366663;19;20014;-74
2022/12/15 13:56:35;;;;;;;3.65;2.67;;;;;;;;;;7372507;19;20408;-78
2022/12/15 13:59:06;;;;;;;6.13;2.22;;;;;;;;;;7366495;19;20473;-74
2022/12/15 14:01:36;;;;;;;9.93;2.08;;;;;;;;;;7374213;19;20043;-74
2022/12/15 14:04:14;;;;;;;4.72;1.50;;;;;;;;;;7371036;19;20003;-74
2022/12/15 14:06:48;;;;;;;7.93;2.20;;;;;;;;;;7368710;19;20035;-74
2022/12/15 14:09:29;;;;;;;6.97;2.45;;;;;;;;;;7366492;19;20594;-74
2022/12/15 14:11:59;;;;;;;2.53;1.63;;;;;;;;;;7371573;19;20013;-77
2022/12/15 14:14:33;;;;;;;4.00;2.13;;;;;;;;;;7371626;19;20266;-78
2022/12/15 14:17:04;;;;;;;3.38;2.00;;;;;;;;;;7366457;19;20117;-76
2022/12/15 14:19:41;;;;;;;3.67;1.85;;;;;;;;;;7371326;19;20030;-77
2022/12/15 14:22:24;;;;;;;5.60;2.17;;;;;;;;;;7376640;19;20365;-77
2022/12/15 14:25:15;;;;;;;4.03;1.70;;;;;;;;;;7356485;19;20036;-77
2022/12/15 14:27:45;;;;;;;4.60;1.98;;;;;;;;;;7276228;19;2004276;-78
2022/12/15 14:30:27;;;;;;;3.22;1.92;;;;;;;;;;7384970;19;20007;-77
2022/12/15 14:32:59;;;;;;;4.10;1.85;;;;;;;;;;7381415;19;20040;-77
2022/12/15 14:35:32;;;;;;;5.20;2.05;;;;;;;;;;7379067;19;20003;-77
2022/12/15 14:38:04;;;;;;;5.15;1.98;;;;;;;;;;7381814;19;20019;-76
2022/12/15 14:40:39;;;;;;;4.07;1.80;;;;;;;;;;7379429;19;20007;-77
2022/12/15 14:43:17;;;;;;;9.77;2.58;;;;;;;;;;7380457;19;20042;-77
2022/12/15 14:45:48;;;;;;;4.38;2.25;;;;;;;;;;7383973;19;20061;-77
2022/12/15 14:48:31;;;;;;;4.90;1.90;;;;;;;;;;7379917;19;20043;-77
2022/12/15 14:51:12;;;;;;;7.60;1.88;;;;;;;;;;7378727;19;20007;-78
2022/12/15 14:53:43;;;;;;;4.47;2.15;;;;;;;;;;7376015;19;20118;-77
2022/12/15 14:56:25;;;;;;;6.35;2.60;;;;;;;;;;7381483;19;20056;-76
2022/12/15 14:59:05;;;;;;;5.73;2.30;;;;;;;;;;7381434;19;20014;-77
2022/12/15 15:01:41;;;;;;;6.75;2.50;;;;;;;;;;7379632;19;20006;-77
2022/12/15 15:04:25;;;;;;;4.43;1.88;;;;;;;;;;7380638;19;20424;-76
2022/12/15 15:06:56;;;;;;;7.65;2.33;;;;;;;;;;7381034;19;20019;-77
2022/12/15 15:09:27;;;;;;;6.13;2.08;;;;;;;;;;7377963;19;20018;-77
2022/12/15 15:12:02;;;;;;;5.75;2.05;;;;;;;;;;7381526;19;20006;-77
2022/12/15 15:14:34;;;;;;;6.47;2.05;;;;;;;;;;7381254;19;20047;-76
2022/12/15 15:17:08;;;;;;;9.05;2.70;;;;;;;;;;7382192;19;20023;-75
2022/12/15 15:19:49;;;;;;;4.10;2.20;;;;;;;;;;7211585;19;2004346;-77
2022/12/15 15:22:27;;;;;;;9.52;2.70;;;;;;;;;;7379450;19;20011;-77
2022/12/15 15:32:31;;;;;;;2.92;2.08;;;;;;;;;;7014208;19;2004198;-74
2022/12/15 15:42:55;;;;;;;6.78;2.40;;;;;;;;;;7153069;19;2004141;-77
2022/12/15 15:45:25;;;;;;;5.22;2.80;;;;;;;;;;7364806;19;20554;-77
2022/12/15 15:47:57;;;;;;;2.55;1.98;;;;;;;;;;7369045;19;20014;-77
2022/12/15 16:01:24;;;;;;;4.97;2.65;;;;;;;;;;7167149;19;2004020;-77
2022/12/15 16:03:56;;;;;;;7.53;2.97;;;;;;;;;;7373182;19;20023;-77
2022/12/15 16:10:36;;;;;;;7.07;3.05;;;;;;;;;;7313713;19;20007;-75
2022/12/15 16:24:56;;;;;;;7.85;4.43;;;;;;;;;;7076457;19;2004354;-76
2022/12/15 16:32:15;;;;;;;10.43;5.07;;;;;;;;;;7179468;19;2004058;-75
2022/12/15 16:34:45;;;;;;;11.38;5.50;;;;;;;;;;7273256;19;2004259;-81
2022/12/15 16:37:45;;;;;;;8.05;3.70;;;;;;;;;;7334600;19;20007;-75
2022/12/15 16:40:17;;;;;;;9.65;5.63;;;;;;;;;;7168008;19;2004111;-79
2022/12/15 16:42:51;;;;;;;10.98;5.15;;;;;;;;;;7372627;19;20006;-76
2022/12/15 16:45:26;;;;;;;17.05;6.97;;;;;;;;;;7371140;19;20039;-77
2022/12/15 16:51:03;;;;;;;14.65;6.95;;;;;;;;;;7267293;19;20015;-78
2022/12/15 16:53:35;;;;;;;18.55;8.30;;;;;;;;;;7369582;19;20006;-76
2022/12/15 16:56:08;;;;;;;17.35;8.57;;;;;;;;;;7376158;19;20007;-78
2022/12/15 16:58:37;;;;;;;23.65;10.93;;;;;;;;;;7375496;19;20011;-76
2022/12/15 17:01:11;;;;;;;24.90;11.73;;;;;;;;;;7345537;19;20078;-75
2022/12/15 17:03:44;;;;;;;22.48;11.55;;;;;;;;;;7370477;19;20010;-75
2022/12/15 17:06:19;;;;;;;25.33;13.40;;;;;;;;;;7370301;19;20127;-75
2022/12/15 17:08:57;;;;;;;31.48;15.80;;;;;;;;;;7364760;19;20101;-74
2022/12/15 17:11:31;;;;;;;35.45;16.23;;;;;;;;;;7361789;19;20379;-73
2022/12/15 17:14:04;;;;;;;34.45;16.25;;;;;;;;;;7345875;19;20010;-74
2022/12/15 17:16:37;;;;;;;36.00;17.83;;;;;;;;;;7372688;19;20017;-75
2022/12/15 17:19:07;;;;;;;35.40;17.02;;;;;;;;;;7371700;19;20094;-74
2022/12/15 17:21:41;;;;;;;37.78;18.00;;;;;;;;;;7373292;19;20546;-76
2022/12/15 17:24:15;;;;;;;41.13;17.10;;;;;;;;;;7373694;19;20155;-75
2022/12/15 17:26:45;;;;;;;34.78;17.92;;;;;;;;;;7371104;19;20426;-74
2022/12/15 17:29:18;;;;;;;41.28;18.38;;;;;;;;;;7370524;19;20245;-76
2022/12/15 17:31:51;;;;;;;54.72;21.38;;;;;;;;;;7373295;19;20007;-75
2022/12/15 17:34:28;;;;;;;51.88;19.83;;;;;;;;;;7371589;19;20319;-75
2022/12/15 17:37:01;;;;;;;54.30;22.02;;;;;;;;;;7368241;19;20015;-76
2022/12/15 17:39:31;;;;;;;44.22;21.13;;;;;;;;;;7366746;19;20007;-75
2022/12/15 17:42:01;;;;;;;55.47;24.38;;;;;;;;;;7367244;19;20086;-75
2022/12/15 17:44:33;;;;;;;53.70;24.70;;;;;;;;;;7372555;19;20063;-75
2022/12/15 17:47:10;;;;;;;62.15;25.45;;;;;;;;;;7372008;19;20019;-76
2022/12/15 17:49:39;;;;;;;94.25;33.60;;;;;;;;;;7371386;19;20479;-75
2022/12/15 17:52:20;;;;;;;70.72;28.83;;;;;;;;;;7366538;19;20010;-75
2022/12/15 17:54:49;;;;;;;56.88;25.40;;;;;;;;;;7371013;19;20702;-77
2022/12/15 17:57:19;;;;;;;43.65;20.58;;;;;;;;;;7377951;19;20031;-77
2022/12/15 17:59:49;;;;;;;47.88;22.35;;;;;;;;;;7381746;19;20007;-77
2022/12/15 18:02:22;;;;;;;44.42;20.48;;;;;;;;;;7377629;19;20268;-77
2022/12/15 18:04:54;;;;;;;49.73;22.53;;;;;;;;;;7378878;19;20011;-77
2022/12/15 18:07:25;;;;;;;47.60;21.48;;;;;;;;;;7374167;19;20530;-77
2022/12/15 18:10:08;;;;;;;43.60;19.55;;;;;;;;;;7332467;19;20041;-74
2022/12/15 18:13:43;;;;;;;;;;;;;;;;;;;;;
2022/12/15 18:19:40;;;;;;;53.95;22.77;;;;;;;;;;7342955;19;20032;-74
2022/12/15 18:22:13;;;;;;;42.75;19.45;;;;;;;;;;7377371;19;20505;-75
2022/12/15 18:24:43;;;;;;;46.87;23.63;;;;;;;;;;7378877;19;20018;-76
2022/12/15 18:27:21;;;;;;;58.55;25.27;;;;;;;;;;7375047;19;20302;-79
2022/12/15 18:29:51;;;;;;;52.92;23.58;;;;;;;;;;7377398;19;20018;-76
2022/12/15 18:32:22;;;;;;;48.78;23.90;;;;;;;;;;7378802;19;20017;-76
2022/12/15 18:34:55;;;;;;;52.03;21.90;;;;;;;;;;7379718;19;20022;-77
2022/12/15 18:37:26;;;;;;;45.25;21.65;;;;;;;;;;7371687;19;20013;-77
2022/12/15 18:40:46;;;;;;;43.63;20.55;;;;;;;;;;7379401;19;20006;-75
2022/12/15 18:43:18;;;;;;;44.58;21.45;;;;;;;;;;7273553;19;2004174;-77
2022/12/15 18:45:49;;;;;;;42.88;20.77;;;;;;;;;;7380232;19;20411;-76
2022/12/15 18:48:21;;;;;;;49.88;19.35;;;;;;;;;;7380800;19;20026;-75
2022/12/15 18:50:56;;;;;;;39.58;18.13;;;;;;;;;;7379637;19;20207;-75
2022/12/15 18:53:28;;;;;;;39.38;19.35;;;;;;;;;;7329440;19;20019;-75